createdAt,value
2022-12-25T00:00:20.934Z,1.35
2022-12-25T00:05:24.397Z,1.55
2022-12-25T00:10:28.482Z,1.77
2022-12-25T00:15:31.326Z,1.88
2022-12-25T00:20:34.127Z,1.85
2022-12-25T00:25:42.025Z,2.47
2022-12-25T00:30:44.784Z,2.67
2022-12-25T00:35:58.360Z,3.53
2022-12-25T00:41:06.077Z,3.58
2022-12-25T00:46:10.257Z,3.90
2022-12-25T00:51:13.219Z,2.47
2022-12-25T00:56:17.435Z,2.38
2022-12-25T01:01:20.314Z,2.35
2022-12-25T01:06:23.101Z,1.90
2022-12-25T01:11:27.233Z,2.63
2022-12-25T01:16:30.063Z,2.38
2022-12-25T01:21:32.849Z,2.50
2022-12-25T01:26:37.011Z,3.45
2022-12-25T01:31:39.759Z,3.33
2022-12-25T01:36:42.479Z,2.72
2022-12-25T01:41:48.042Z,2.53
2022-12-25T01:46:50.763Z,2.28
2022-12-25T01:51:55.631Z,2.20
2022-12-25T01:57:02.416Z,2.08
2022-12-25T02:02:05.413Z,1.98
2022-12-25T02:07:10.155Z,1.85
2022-12-25T02:12:19.355Z,1.77
2022-12-25T02:17:26.765Z,1.73
2022-12-25T02:22:35.913Z,2.33
2022-12-25T02:27:55.889Z,2.00
2022-12-25T02:33:15.481Z,1.85
2022-12-25T02:38:21.562Z,2.10
2022-12-25T02:43:58.028Z,1.88
2022-12-25T02:49:22.128Z,2.10
2022-12-25T02:54:46.415Z,1.77
2022-12-25T03:00:09.700Z,2.22
2022-12-25T03:05:33.486Z,2.05
2022-12-25T03:10:55.734Z,2.05
2022-12-25T03:16:17.313Z,2.17
2022-12-25T03:21:39.695Z,2.03
2022-12-25T03:27:02.350Z,2.03
2022-12-25T03:32:11.367Z,1.80
2022-12-25T03:37:38.130Z,1.85
2022-12-25T03:43:02.115Z,2.08
2022-12-25T03:48:24.839Z,2.40
2022-12-25T03:53:48.330Z,2.20
2022-12-25T03:59:10.136Z,1.90
2022-12-25T04:04:31.765Z,2.38
2022-12-25T04:09:51.988Z,1.80
2022-12-25T04:15:12.126Z,1.95
2022-12-25T04:20:33.854Z,2.17
2022-12-25T04:25:54.010Z,1.83
2022-12-25T04:31:14.635Z,2.03
2022-12-25T04:36:18.849Z,2.08
2022-12-25T04:41:21.603Z,1.90
2022-12-25T04:46:24.426Z,1.95
2022-12-25T04:51:28.524Z,2.00
2022-12-25T04:56:31.238Z,1.92
2022-12-25T05:01:34.051Z,2.10
2022-12-25T05:06:38.984Z,2.10
2022-12-25T05:11:41.740Z,1.77
2022-12-25T05:16:44.636Z,2.00
2022-12-25T05:21:48.789Z,2.00
2022-12-25T05:26:51.512Z,2.17
2022-12-25T05:31:54.256Z,1.83
2022-12-25T05:36:58.411Z,1.70
2022-12-25T05:42:01.223Z,2.08
2022-12-25T05:47:04.043Z,1.88
2022-12-25T05:52:08.285Z,2.05
2022-12-25T05:57:11.027Z,1.85
2022-12-25T06:02:13.826Z,1.50
2022-12-25T06:07:18.256Z,1.92
2022-12-25T06:12:20.940Z,1.60
2022-12-25T06:17:26.255Z,1.40
2022-12-25T06:22:31.089Z,1.63
2022-12-25T06:27:33.898Z,1.70
2022-12-25T06:32:36.685Z,2.60
2022-12-25T06:37:41.081Z,2.13
2022-12-25T06:42:43.867Z,2.58
2022-12-25T06:47:46.604Z,2.38
2022-12-25T06:52:50.758Z,2.33
2022-12-25T06:57:53.606Z,2.08
2022-12-25T07:02:56.651Z,2.20
2022-12-25T07:08:00.825Z,2.75
2022-12-25T07:13:03.542Z,3.05
2022-12-25T07:18:06.456Z,3.45
2022-12-25T07:23:10.791Z,2.65
2022-12-25T07:28:13.487Z,2.05
2022-12-25T07:33:17.370Z,6.05
2022-12-25T07:38:21.438Z,2.15
2022-12-25T07:43:25.187Z,2.22
2022-12-25T07:48:28.510Z,2.38
2022-12-25T07:53:32.928Z,1.98
2022-12-25T07:58:36.104Z,2.38
2022-12-25T08:03:38.933Z,2.38
2022-12-25T08:08:43.162Z,2.78
2022-12-25T08:13:46.044Z,2.60
2022-12-25T08:18:49.101Z,2.40
2022-12-25T08:23:53.240Z,2.10
2022-12-25T08:28:56.084Z,2.83
2022-12-25T08:34:00.352Z,3.83
2022-12-25T08:39:04.866Z,3.22
2022-12-25T08:44:07.745Z,3.58
2022-12-25T08:49:10.544Z,3.47
2022-12-25T08:54:14.816Z,3.65
2022-12-25T08:59:17.623Z,6.00
2022-12-25T09:04:20.603Z,3.40
2022-12-25T09:09:28.521Z,2.75
2022-12-25T09:14:32.156Z,3.33
2022-12-25T09:19:35.070Z,4.07
2022-12-25T09:24:39.862Z,6.63
2022-12-25T09:29:42.607Z,4.30
2022-12-25T09:34:45.793Z,3.38
2022-12-25T09:39:49.895Z,2.40
2022-12-25T09:44:55.201Z,2.92
2022-12-25T09:50:02.380Z,2.63
2022-12-25T09:55:17.889Z,2.88
2022-12-25T10:00:24.905Z,2.60
2022-12-25T10:05:53.681Z,3.55
2022-12-25T10:11:01.382Z,3.92
2022-12-25T10:16:14.792Z,3.90
2022-12-25T10:21:19.345Z,4.05
2022-12-25T10:26:25.304Z,2.97
2022-12-25T10:31:30.380Z,4.72
2022-12-25T10:36:35.227Z,3.50
2022-12-25T10:41:54.401Z,3.10
2022-12-25T10:46:59.043Z,3.15
2022-12-25T10:52:02.575Z,2.90
2022-12-25T10:57:16.177Z,3.15
2022-12-25T11:02:22.513Z,3.03
2022-12-25T11:07:26.694Z,3.83
2022-12-25T11:12:33.215Z,3.17
2022-12-25T11:17:36.775Z,4.25
2022-12-25T11:22:45.355Z,3.80
2022-12-25T11:27:58.259Z,2.95
2022-12-25T11:33:02.696Z,2.15
2022-12-25T11:38:05.467Z,2.55
2022-12-25T11:43:13.389Z,2.13
2022-12-25T11:48:19.497Z,2.28
2022-12-25T11:53:26.505Z,2.55
2022-12-25T11:58:33.806Z,2.42
2022-12-25T12:03:38.549Z,2.85
2022-12-25T12:08:42.046Z,2.70
2022-12-25T12:14:06.669Z,3.38
2022-12-25T12:19:13.877Z,3.40
2022-12-25T12:24:19.017Z,2.00
2022-12-25T12:29:28.265Z,2.50
2022-12-25T12:34:33.173Z,2.90
2022-12-25T12:39:38.213Z,3.03
2022-12-25T12:44:42.630Z,3.05
2022-12-25T12:49:45.462Z,3.55
2022-12-25T12:54:56.585Z,3.38
2022-12-25T13:00:08.590Z,3.45
2022-12-25T13:05:19.098Z,3.40
2022-12-25T13:10:25.687Z,3.30
2022-12-25T13:15:32.316Z,3.33
2022-12-25T13:20:43.117Z,3.67
2022-12-25T13:25:53.295Z,3.67
2022-12-25T13:31:04.747Z,3.00
2022-12-25T13:36:11.676Z,3.33
2022-12-25T13:41:36.766Z,3.65
2022-12-25T13:46:41.117Z,3.28
2022-12-25T13:51:44.214Z,3.42
2022-12-25T13:56:49.339Z,3.72
2022-12-25T14:01:54.564Z,3.22
2022-12-25T14:06:57.398Z,2.83
2022-12-25T14:12:00.131Z,2.70
2022-12-25T14:17:05.873Z,2.40
2022-12-25T14:22:12.464Z,2.97
2022-12-25T14:27:19.626Z,3.08
2022-12-25T14:32:25.453Z,3.20
2022-12-25T14:37:30.542Z,2.53
2022-12-25T14:42:35.528Z,3.00
2022-12-25T14:47:52.169Z,4.60
2022-12-25T14:52:55.245Z,4.20
2022-12-25T14:58:00.495Z,6.05
2022-12-25T15:03:06.585Z,4.20
2022-12-25T15:08:23.866Z,3.78
2022-12-25T15:13:27.607Z,3.70
2022-12-25T15:18:35.759Z,4.60
2022-12-25T15:23:38.507Z,4.25
2022-12-25T15:28:41.249Z,4.82
2022-12-25T15:33:45.382Z,4.22
2022-12-25T15:38:48.338Z,3.10
2022-12-25T15:43:51.059Z,4.93
2022-12-25T15:48:55.116Z,6.78
2022-12-25T15:53:58.958Z,7.25
2022-12-25T15:59:01.653Z,6.03
2022-12-25T16:04:05.907Z,4.85
2022-12-25T16:09:08.637Z,4.20
2022-12-25T16:14:11.446Z,10.38
2022-12-25T16:19:15.627Z,5.03
2022-12-25T16:24:18.904Z,4.78
2022-12-25T16:29:21.922Z,4.18
2022-12-25T16:34:26.238Z,4.75
2022-12-25T16:39:29.016Z,8.88
2022-12-25T16:44:31.748Z,4.18
2022-12-25T16:49:36.314Z,4.97
2022-12-25T16:54:39.087Z,5.50
2022-12-25T16:59:41.908Z,6.22
2022-12-25T17:04:46.584Z,4.90
2022-12-25T17:09:49.736Z,4.15
2022-12-25T17:14:53.311Z,8.77
2022-12-25T17:19:57.585Z,5.20
2022-12-25T17:25:00.375Z,3.88
2022-12-25T17:30:03.252Z,3.17
2022-12-25T17:35:07.969Z,3.33
2022-12-25T17:40:11.633Z,3.47
2022-12-25T17:45:14.330Z,3.05
2022-12-25T17:50:18.697Z,5.57
2022-12-25T17:55:21.398Z,3.28
2022-12-25T18:00:24.232Z,9.43
2022-12-25T18:05:28.407Z,4.88
2022-12-25T18:10:31.701Z,3.58
2022-12-25T18:15:38.041Z,4.28
2022-12-25T18:20:42.616Z,6.25
2022-12-25T18:25:45.496Z,3.65
2022-12-25T18:30:48.884Z,3.03
2022-12-25T18:35:58.203Z,1.77
2022-12-25T18:41:00.976Z,2.00
2022-12-25T18:46:05.702Z,1.65
2022-12-25T18:51:12.876Z,2.08
2022-12-25T18:56:18.832Z,1.58
2022-12-25T19:01:23.555Z,1.50
2022-12-25T19:06:28.836Z,1.63
2022-12-25T19:11:32.202Z,1.17
2022-12-25T19:16:35.512Z,1.60
2022-12-25T19:21:40.014Z,2.10
2022-12-25T19:26:43.910Z,1.30
2022-12-25T19:31:47.392Z,1.50
2022-12-25T19:36:51.666Z,1.23
2022-12-25T19:41:54.691Z,1.30
2022-12-25T19:46:57.504Z,1.25
2022-12-25T19:52:03.177Z,1.00
2022-12-25T19:57:06.003Z,1.23
2022-12-25T20:02:10.256Z,1.30
2022-12-25T20:07:14.434Z,1.20
2022-12-25T20:12:17.158Z,1.30
2022-12-25T20:17:19.897Z,1.20
2022-12-25T20:22:24.405Z,1.20
2022-12-25T20:27:27.216Z,1.25
2022-12-25T20:32:30.786Z,1.13
2022-12-25T20:37:34.849Z,1.33
2022-12-25T20:42:37.598Z,1.20
2022-12-25T20:47:40.276Z,1.02
2022-12-25T20:52:44.456Z,1.08
2022-12-25T20:57:47.173Z,1.00
2022-12-25T21:02:50.309Z,1.05
2022-12-25T21:07:54.539Z,1.20
2022-12-25T21:12:57.272Z,1.40
2022-12-25T21:18:00.041Z,1.23
2022-12-25T21:23:04.268Z,0.80
2022-12-25T21:28:07.055Z,1.27
2022-12-25T21:33:28.734Z,1.48
2022-12-25T21:38:33.167Z,0.98
2022-12-25T21:43:36.277Z,1.15
2022-12-25T21:48:39.802Z,0.98
2022-12-25T21:53:43.886Z,1.08
2022-12-25T21:58:47.104Z,1.05
2022-12-25T22:03:50.107Z,1.10
2022-12-25T22:08:54.284Z,1.40
2022-12-25T22:14:14.774Z,1.05
2022-12-25T22:19:35.311Z,1.20
2022-12-25T22:24:39.489Z,1.20
2022-12-25T22:29:42.298Z,1.23
2022-12-25T22:34:45.142Z,1.20
2022-12-25T22:39:49.309Z,0.93
2022-12-25T22:44:52.102Z,1.15
2022-12-25T22:49:54.888Z,1.42
2022-12-25T22:54:59.035Z,1.27
2022-12-25T23:00:01.991Z,1.23
2022-12-25T23:05:05.517Z,1.20
2022-12-25T23:10:10.553Z,1.05
2022-12-25T23:15:13.383Z,1.25
2022-12-25T23:20:33.884Z,1.50
2022-12-25T23:25:55.443Z,1.35
2022-12-25T23:30:58.223Z,1.52
2022-12-25T23:36:00.988Z,1.48
2022-12-25T23:41:05.155Z,0.98
2022-12-25T23:46:08.007Z,1.38
2022-12-25T23:51:10.817Z,1.65
2022-12-25T23:56:14.945Z,1.60
